Time;durP1;ratioP1;P1;durP2;ratioP2;P2;SDS_P1;SDS_P2;PMS_P1;PMS_P2;Temp;Humidity;BMP_temperature;BMP_pressure;BME280_temperature;BME280_humidity;BME280_pressure;Samples;Min_cycle;Max_cycle;Signal;HPM_P1;HPM_P2
2021/08/02 00:00:15;;;;;;;0.50;0.50;;;;;;;13.86;78.41;96654.66;29395;252;63004;-74
2021/08/02 00:01:05;;;;;;;0.50;0.50;;;;;;;13.86;78.68;96651.16;29394;220;64009;-73
2021/08/02 00:01:45;;;;;;;0.50;0.50;;;;;;;13.87;78.62;96653.56;29395;242;63004;-73
2021/08/02 00:03:04;;;;;;;0.50;0.50;;;;;;;13.88;79.25;96652.44;29395;202;63016;-74
2021/08/02 00:04:09;;;;;;;0.50;0.50;;;;;;;13.88;78.90;96649.72;29394;241;64005;-73
2021/08/02 00:04:52;;;;;;;0.50;0.50;;;;;;;13.89;78.78;96656.75;29395;209;63009;-72
2021/08/02 00:05:24;;;;;;;0.50;0.50;;;;;;;13.90;78.84;96652.12;29395;245;63005;-74
2021/08/02 00:05:58;;;;;;;0.40;0.40;;;;;;;13.90;78.92;96655.66;29395;242;63009;-74
2021/08/02 00:06:51;;;;;;;0.50;0.50;;;;;;;13.91;78.90;96649.06;29395;237;63004;-71
2021/08/02 00:07:25;;;;;;;1.10;1.10;;;;;;;13.93;78.52;96652.28;29395;209;63009;-75
2021/08/02 00:08:00;;;;;;;0.50;0.50;;;;;;;13.93;78.55;96656.94;29395;217;63004;-72
2021/08/02 00:08:31;;;;;;;0.43;0.43;;;;;;;13.93;78.72;96659.66;29394;227;64009;-71
2021/08/02 00:09:07;;;;;;;0.50;0.50;;;;;;;13.93;78.39;96660.47;29395;210;63004;-71
2021/08/02 00:09:43;;;;;;;0.50;0.50;;;;;;;13.94;78.49;96653.09;29395;251;63019;-72
2021/08/02 00:10:16;;;;;;;0.50;0.50;;;;;;;13.94;78.65;96661.25;29395;204;63005;-69
2021/08/02 00:10:51;;;;;;;0.50;0.50;;;;;;;13.96;78.77;96654.37;29395;232;63009;-71
2021/08/02 00:11:31;;;;;;;0.50;0.50;;;;;;;13.96;78.94;96657.09;29395;285;63005;-71
2021/08/02 00:12:08;;;;;;;0.50;0.50;;;;;;;13.95;78.55;96654.69;29417;199;63009;-72
2021/08/02 00:12:46;;;;;;;0.50;0.50;;;;;;;13.95;79.53;96660.16;29395;233;63005;-71
2021/08/02 00:13:35;;;;;;;0.50;0.50;;;;;;;13.91;79.19;96656.44;29394;218;64009;-73
2021/08/02 00:14:09;;;;;;;0.50;0.50;;;;;;;13.89;79.24;96655.97;29395;202;63004;-72
2021/08/02 00:14:42;;;;;;;0.50;0.50;;;;;;;13.90;79.13;96652.12;29395;248;63009;-72
2021/08/02 00:15:16;;;;;;;0.50;0.50;;;;;;;13.90;79.01;96658.38;29395;218;63004;-71
2021/08/02 00:15:48;;;;;;;0.40;0.40;;;;;;;13.90;78.89;96652.12;29394;268;64008;-71
2021/08/02 00:16:20;;;;;;;0.50;0.50;;;;;;;13.91;78.58;96649.06;29395;186;63004;-72
2021/08/02 00:16:53;;;;;;;0.50;0.50;;;;;;;13.92;78.65;96652.59;29395;211;63008;-72
2021/08/02 00:17:25;;;;;;;0.50;0.50;;;;;;;13.92;78.79;96656.13;29395;253;63005;-72
2021/08/02 00:17:57;;;;;;;0.40;0.40;;;;;;;13.92;78.77;96649.88;29395;242;63009;-72
2021/08/02 00:18:31;;;;;;;0.50;0.50;;;;;;;13.91;78.95;96651.00;29395;230;63005;-72
2021/08/02 00:19:07;;;;;;;0.50;0.50;;;;;;;13.89;79.06;96654.03;29395;243;63009;-71
2021/08/02 00:19:39;;;;;;;0.50;0.50;;;;;;;13.88;78.66;96655.16;29394;206;64005;-71
2021/08/02 00:20:26;;;;;;;0.50;0.50;;;;;;;13.88;78.88;96657.88;29395;216;63017;-71
2021/08/02 00:21:02;;;;;;;0.40;0.40;;;;;;;13.89;79.23;96656.75;29395;277;63004;-72
2021/08/02 00:21:34;;;;;;;0.50;0.50;;;;;;;13.88;79.36;96655.16;29395;260;63009;-72
2021/08/02 00:22:06;;;;;;;0.50;0.50;;;;;;;13.88;79.06;96655.16;29395;240;63004;-72
2021/08/02 00:22:38;;;;;;;0.50;0.50;;;;;;;13.88;79.05;96651.62;29395;210;63009;-71
2021/08/02 00:23:11;;;;;;;0.50;0.50;;;;;;;13.89;79.00;96655.97;29395;214;63004;-72
2021/08/02 00:23:42;;;;;;;0.50;0.50;;;;;;;13.87;79.31;96653.56;29395;237;63008;-71
2021/08/02 00:24:16;;;;;;;0.50;0.50;;;;;;;13.88;79.13;96655.16;29395;308;63005;-71
2021/08/02 00:24:49;;;;;;;0.50;0.50;;;;;;;13.89;79.11;96655.97;29394;233;64009;-58
2021/08/02 00:25:21;;;;;;;0.50;0.50;;;;;;;13.87;79.22;96650.81;29395;236;63005;-72
2021/08/02 00:25:58;;;;;;;0.50;0.50;;;;;;;13.87;79.21;96650.81;29395;221;63017;-73
2021/08/02 00:26:31;;;;;;;0.50;0.50;;;;;;;13.88;79.19;96660.63;29395;245;63005;-71
2021/08/02 00:27:04;;;;;;;0.50;0.50;;;;;;;13.89;79.15;96661.41;29395;257;63009;-71
2021/08/02 00:27:36;;;;;;;0.40;0.40;;;;;;;13.89;79.42;96662.22;29395;348;63005;-72
2021/08/02 00:28:07;;;;;;;0.50;0.50;;;;;;;13.88;79.15;96657.88;29395;213;63009;-71
2021/08/02 00:28:40;;;;;;;0.50;0.50;;;;;;;13.88;79.10;96660.63;29395;274;63004;-72
2021/08/02 00:29:12;;;;;;;0.70;0.70;;;;;;;13.88;79.34;96662.53;29394;240;64009;-58
2021/08/02 00:29:43;;;;;;;0.50;0.50;;;;;;;13.88;79.10;96657.88;29395;236;63004;-73
2021/08/02 00:30:15;;;;;;;0.50;0.50;;;;;;;13.87;79.52;96659.00;29395;199;63009;-72
2021/08/02 00:30:46;;;;;;;0.50;0.50;;;;;;;13.87;79.22;96663.66;29395;206;63004;-71
2021/08/02 00:31:18;;;;;;;0.50;0.50;;;;;;;13.86;79.62;96665.59;29394;220;64008;-71
2021/08/02 00:31:51;;;;;;;0.50;0.50;;;;;;;13.84;79.67;96665.13;29394;294;64005;-71
2021/08/02 00:32:22;;;;;;;0.50;0.50;;;;;;;13.85;79.58;96663.19;29395;264;63009;-72
2021/08/02 00:32:55;;;;;;;0.50;0.50;;;;;;;13.85;79.50;96666.72;29395;217;63005;-73
2021/08/02 00:33:26;;;;;;;0.50;0.50;;;;;;;13.87;79.53;96663.66;29395;235;63009;-71
2021/08/02 00:33:58;;;;;;;0.50;0.50;;;;;;;13.86;79.29;96660.13;29395;236;63005;-73
2021/08/02 00:34:29;;;;;;;0.50;0.50;;;;;;;13.89;78.71;96667.69;29395;220;63009;-70
2021/08/02 00:35:02;;;;;;;0.50;0.50;;;;;;;13.88;79.03;96660.63;29395;219;63006;-73
2021/08/02 00:35:39;;;;;;;0.50;0.50;;;;;;;13.89;78.97;96664.94;29395;205;63009;-71
2021/08/02 00:36:30;;;;;;;0.50;0.50;;;;;;;13.89;79.00;96667.69;29394;236;64004;-71
2021/08/02 00:37:11;;;;;;;0.50;0.50;;;;;;;13.88;79.06;96666.06;29417;295;63009;-74
2021/08/02 00:38:09;;;;;;;0.50;0.50;;;;;;;13.92;78.58;96660.78;29417;250;63004;-75
2021/08/02 00:38:47;;;;;;;0.50;0.50;;;;;;;13.93;78.30;96674.09;29395;239;63008;-72
2021/08/02 00:40:04;;;;;;;0.50;0.50;;;;;;;13.92;78.18;96664.31;29395;246;63005;-73
2021/08/02 00:41:16;;;;;;;0.50;0.50;;;;;;;13.86;78.53;96662.84;29395;258;63009;-71
2021/08/02 00:42:39;;;;;;;0.50;0.50;;;;;;;13.88;78.67;96668.78;29376;227;126005;-77
2021/08/02 00:43:37;;;;;;;0.50;0.50;;;;;;;13.86;78.69;96667.53;29371;261;64009;-71
2021/08/02 00:44:54;;;;;;;0.50;0.50;;;;;;;13.79;80.25;96670.72;29395;283;63009;-72
2021/08/02 00:45:33;;;;;;;0.50;0.50;;;;;;;13.77;80.02;96670.25;29394;243;64009;-72
2021/08/02 00:46:05;;;;;;;0.50;0.50;;;;;;;13.76;80.21;96674.09;29395;204;63014;-74
2021/08/02 00:46:47;;;;;;;0.50;0.50;;;;;;;13.75;79.81;96673.28;29395;265;63009;-72
2021/08/02 00:47:19;;;;;;;;;;;;;;;13.74;79.48;96666.22;29996;982;6000;-72
2021/08/02 00:48:08;;;;;;;0.50;0.50;;;;;;;13.75;79.49;96672.47;29400;216;63005;-72
2021/08/02 00:48:57;;;;;;;0.50;0.50;;;;;;;13.75;79.59;96677.94;29394;263;64009;-73
2021/08/02 00:49:29;;;;;;;0.50;0.50;;;;;;;13.74;79.69;96676.34;29394;323;64005;-72
2021/08/02 00:50:22;;;;;;;0.52;0.52;;;;;;;13.75;79.53;96683.41;29395;218;63009;-72
2021/08/02 00:50:58;;;;;;;0.50;0.50;;;;;;;13.75;79.39;96678.75;29395;199;63004;-71
2021/08/02 00:51:35;;;;;;;0.50;0.50;;;;;;;13.76;79.30;96676.81;29395;248;63009;-72
2021/08/02 00:52:08;;;;;;;0.50;0.50;;;;;;;13.77;79.42;96675.69;29394;291;64004;-73
2021/08/02 00:52:51;;;;;;;0.50;0.50;;;;;;;13.77;79.32;96675.69;29395;242;63009;-70
2021/08/02 00:53:26;;;;;;;0.50;0.50;;;;;;;13.78;79.22;96671.84;29394;241;64004;-74
2021/08/02 00:54:00;;;;;;;0.50;0.50;;;;;;;13.80;79.05;96680.53;29395;228;63019;-73
2021/08/02 00:54:33;;;;;;;0.50;0.50;;;;;;;13.80;78.79;96677.78;29395;240;63005;-73
2021/08/02 00:55:07;;;;;;;0.50;0.50;;;;;;;13.83;78.97;96679.09;29394;199;64009;-72
2021/08/02 00:55:42;;;;;;;0.50;0.50;;;;;;;13.82;78.67;96672.81;29395;208;63005;-73
2021/08/02 00:56:14;;;;;;;0.50;0.50;;;;;;;13.82;78.87;96672.81;29395;214;63009;-72
2021/08/02 00:56:47;;;;;;;0.50;0.50;;;;;;;13.81;78.81;96673.94;29395;220;63005;-71
2021/08/02 00:57:21;;;;;;;0.50;0.50;;;;;;;13.80;78.89;96680.53;29395;282;63009;-71
2021/08/02 00:57:56;;;;;;;0.50;0.50;;;;;;;13.81;78.92;96681.31;29395;203;63014;-72
2021/08/02 00:58:29;;;;;;;0.50;0.50;;;;;;;13.80;79.05;96674.25;29395;210;63009;-71
2021/08/02 00:59:04;;;;;;;0.50;0.50;;;;;;;13.80;79.31;96685.16;29395;216;63004;-73
2021/08/02 00:59:36;;;;;;;0.50;0.50;;;;;;;13.81;79.05;96681.31;29394;207;64009;-71
2021/08/02 01:00:12;;;;;;;0.50;0.50;;;;;;;13.81;78.99;96681.31;29395;216;63004;-72
2021/08/02 01:00:43;;;;;;;0.50;0.50;;;;;;;13.81;79.06;96676.66;29395;209;63009;-72
2021/08/02 01:01:16;;;;;;;0.50;0.50;;;;;;;13.81;79.30;96682.12;29395;206;63004;-74
2021/08/02 01:01:49;;;;;;;0.50;0.50;;;;;;;13.79;79.70;96678.91;29395;215;63009;-73
2021/08/02 01:02:20;;;;;;;0.50;0.50;;;;;;;13.77;79.48;96683.06;29395;225;63005;-73
2021/08/02 01:02:53;;;;;;;0.50;0.50;;;;;;;13.78;79.78;96681.97;29395;199;63009;-72
2021/08/02 01:03:28;;;;;;;0.50;0.50;;;;;;;13.78;80.13;96680.03;29395;214;63005;-74
2021/08/02 01:04:01;;;;;;;0.50;0.50;;;;;;;13.72;80.21;96679.38;29394;197;64009;-72
2021/08/02 01:04:36;;;;;;;0.50;0.50;;;;;;;13.76;80.48;96685.00;29395;198;63005;-73
2021/08/02 01:05:10;;;;;;;0.60;0.60;;;;;;;13.75;80.50;96678.75;29395;214;63009;-72
2021/08/02 01:05:44;;;;;;;0.50;0.50;;;;;;;13.76;80.41;96676.81;29395;245;63008;-71
2021/08/02 01:06:18;;;;;;;0.85;0.85;;;;;;;13.80;79.67;96685.16;29395;198;63009;-73
2021/08/02 01:06:53;;;;;;;0.40;0.40;;;;;;;13.81;79.26;96687.56;29395;224;63004;-73
2021/08/02 01:07:26;;;;;;;0.40;0.40;;;;;;;13.82;79.21;96689.19;29395;198;63009;-72
2021/08/02 01:08:02;;;;;;;0.50;0.50;;;;;;;13.82;79.35;96672.81;29395;251;63014;-73
2021/08/02 01:08:38;;;;;;;0.50;0.50;;;;;;;13.81;79.54;96675.88;29395;205;63008;-72
2021/08/02 01:09:15;;;;;;;0.50;0.50;;;;;;;13.80;79.54;96680.53;29394;225;63996;-71
2021/08/02 01:09:47;;;;;;;0.50;0.50;;;;;;;13.80;79.65;96679.72;29395;258;63009;-70
2021/08/02 01:10:19;;;;;;;0.50;0.50;;;;;;;13.79;79.45;96681.62;29395;238;63005;-71
2021/08/02 01:11:11;;;;;;;0.50;0.50;;;;;;;13.80;79.72;96687.91;29395;224;63009;-71
2021/08/02 01:11:45;;;;;;;0.50;0.50;;;;;;;13.80;79.77;96680.53;29395;203;63005;-72
2021/08/02 01:12:18;;;;;;;0.50;0.50;;;;;;;13.79;80.09;96684.38;29395;202;63009;-71
2021/08/02 01:12:55;;;;;;;0.50;0.50;;;;;;;13.79;80.21;96680.84;29395;199;63009;-72
2021/08/02 01:13:29;;;;;;;0.50;0.50;;;;;;;13.77;80.62;96680.34;29395;204;63009;-73
2021/08/02 01:14:08;;;;;;;0.50;0.50;;;;;;;13.76;80.62;96690.44;29395;208;63004;-74
2021/08/02 01:14:40;;;;;;;0.50;0.50;;;;;;;13.75;80.80;96683.41;29394;242;64009;-73
2021/08/02 01:15:13;;;;;;;0.50;0.50;;;;;;;13.76;80.56;96679.53;29395;205;63004;-74
2021/08/02 01:15:51;;;;;;;0.50;0.50;;;;;;;13.78;80.90;96685.50;29395;196;63013;-72
2021/08/02 01:16:23;;;;;;;0.50;0.50;;;;;;;13.78;81.10;96688.22;29395;234;63005;-71
2021/08/02 01:16:56;;;;;;;0.50;0.50;;;;;;;13.78;81.25;96676.50;29395;220;63009;-73
2021/08/02 01:17:30;;;;;;;0.50;0.50;;;;;;;13.79;81.30;96681.62;29395;246;63005;-72
2021/08/02 01:18:03;;;;;;;0.50;0.50;;;;;;;13.79;81.37;96678.91;29394;317;64009;-72
2021/08/02 01:18:36;;;;;;;0.50;0.50;;;;;;;13.79;81.60;96684.38;29395;219;63005;-73
2021/08/02 01:19:11;;;;;;;0.50;0.50;;;;;;;13.79;81.70;96684.38;29394;333;64009;-72
2021/08/02 01:19:43;;;;;;;0.50;0.50;;;;;;;13.79;81.78;96687.09;29395;220;63005;-72
2021/08/02 01:20:15;;;;;;;0.50;0.50;;;;;;;13.78;82.04;96677.31;29395;261;63009;-72
2021/08/02 01:20:49;;;;;;;0.50;0.50;;;;;;;13.78;82.15;96682.75;29395;197;63009;-72
2021/08/02 01:21:21;;;;;;;0.50;0.50;;;;;;;13.78;82.24;96681.97;29395;264;63009;-71
2021/08/02 01:21:59;;;;;;;0.40;0.40;;;;;;;13.76;81.66;96679.53;29395;202;63004;-72
2021/08/02 01:22:33;;;;;;;0.50;0.50;;;;;;;13.75;81.80;96683.41;29394;228;64009;-71
2021/08/02 01:23:05;;;;;;;0.50;0.50;;;;;;;13.75;82.09;96684.19;29395;246;63004;-72
2021/08/02 01:23:38;;;;;;;0.50;0.50;;;;;;;13.75;82.08;96683.41;29394;374;64009;-72
2021/08/02 01:24:13;;;;;;;0.50;0.50;;;;;;;13.75;81.69;96683.41;29395;220;63005;-72
2021/08/02 01:24:44;;;;;;;0.40;0.40;;;;;;;13.75;82.02;96678.75;29395;209;63009;-71
2021/08/02 01:25:56;;;;;;;0.50;0.50;;;;;;;13.76;81.76;96676.81;29395;236;63011;-71
2021/08/02 01:27:25;;;;;;;0.50;0.50;;;;;;;13.79;81.60;96673.47;29479;207;125005;-73
2021/08/02 01:28:43;;;;;;;0.40;0.40;;;;;;;13.82;81.37;96663.84;29395;232;63013;-71
2021/08/02 01:29:51;;;;;;;0.50;0.50;;;;;;;13.82;81.39;96675.56;29394;207;64004;-74
2021/08/02 01:30:24;;;;;;;0.50;0.50;;;;;;;13.83;81.28;96674.44;29395;233;63004;-73
2021/08/02 01:30:57;;;;;;;0.40;0.40;;;;;;;13.82;81.29;96678.28;29395;219;63008;-73
2021/08/02 01:31:29;;;;;;;0.40;0.40;;;;;;;13.83;81.16;96674.44;29395;231;63005;-74
2021/08/02 01:32:00;;;;;;;0.40;0.40;;;;;;;13.83;81.40;96673.62;29395;230;63009;-74
2021/08/02 01:32:31;;;;;;;0.40;0.40;;;;;;;13.82;81.42;96678.28;29395;203;63005;-74
2021/08/02 01:33:03;;;;;;;0.40;0.40;;;;;;;13.84;81.38;96676.03;29394;204;64009;-71
2021/08/02 01:33:34;;;;;;;0.50;0.50;;;;;;;13.83;81.55;96682.62;29395;287;63005;-71
2021/08/02 01:34:05;;;;;;;0.50;0.50;;;;;;;13.84;81.44;96676.03;29395;227;63018;-71
2021/08/02 01:34:37;;;;;;;0.50;0.50;;;;;;;13.85;81.16;96683.09;29395;212;63005;-72
2021/08/02 01:35:13;;;;;;;0.50;0.50;;;;;;;13.84;81.29;96676.03;29395;205;63009;-71
2021/08/02 01:35:45;;;;;;;0.50;0.50;;;;;;;13.86;81.19;96670.25;29395;218;63004;-70
2021/08/02 01:36:16;;;;;;;0.40;0.40;;;;;;;13.85;81.30;96677.66;29395;245;63009;-71
2021/08/02 01:36:47;;;;;;;0.50;0.50;;;;;;;13.86;81.37;96667.53;29395;244;63004;-72
2021/08/02 01:37:19;;;;;;;0.50;0.50;;;;;;;13.86;81.68;96667.53;29395;234;63009;-71
2021/08/02 01:37:51;;;;;;;0.50;0.50;;;;;;;13.85;81.54;96674.91;29395;202;63004;-70
2021/08/02 01:38:24;;;;;;;0.40;0.40;;;;;;;13.85;81.38;96666.72;29394;205;64008;-71
2021/08/02 01:38:55;;;;;;;0.50;0.50;;;;;;;13.85;81.32;96664.00;29395;249;63005;-72
2021/08/02 01:39:26;;;;;;;0.50;0.50;;;;;;;13.85;81.25;96666.72;29395;203;63009;-71
2021/08/02 01:39:58;;;;;;;0.40;0.40;;;;;;;13.85;81.04;96674.91;29394;209;64005;-71
2021/08/02 01:40:30;;;;;;;0.50;0.50;;;;;;;13.85;81.08;96661.28;29395;222;63009;-72
2021/08/02 01:41:03;;;;;;;0.50;0.50;;;;;;;13.87;81.03;96667.19;29395;229;63005;-71
2021/08/02 01:41:35;;;;;;;0.50;0.50;;;;;;;13.87;80.85;96663.66;29395;198;63009;-73
2021/08/02 01:42:07;;;;;;;0.50;0.50;;;;;;;13.87;81.30;96678.09;29395;222;63005;-72
2021/08/02 01:42:39;;;;;;;0.50;0.50;;;;;;;13.86;81.66;96665.59;29395;213;63009;-73
2021/08/02 01:43:10;;;;;;;0.47;0.47;;;;;;;13.84;81.68;96662.41;29395;216;63004;-73
2021/08/02 01:43:45;;;;;;;0.50;0.50;;;;;;;13.83;81.54;96658.06;29395;197;63009;-72
2021/08/02 01:44:16;;;;;;;0.40;0.40;;;;;;;13.83;81.49;96655.34;29395;213;63004;-71
2021/08/02 01:44:48;;;;;;;0.47;0.47;;;;;;;13.84;81.11;96659.69;29395;208;63009;-72
2021/08/02 01:45:19;;;;;;;0.50;0.50;;;;;;;13.85;81.33;96664.00;29394;221;64004;-71
2021/08/02 01:46:09;;;;;;;0.50;0.50;;;;;;;13.85;81.22;96661.28;29395;269;63008;-72
2021/08/02 01:46:47;;;;;;;0.40;0.40;;;;;;;13.85;80.86;96664.00;29395;307;63005;-72
2021/08/02 01:48:16;;;;;;;0.40;0.40;;;;;;;13.86;80.75;96660.13;29395;208;63009;-72
2021/08/02 01:49:24;;;;;;;0.50;0.50;;;;;;;13.88;80.63;96670.72;29394;216;64005;-71
2021/08/02 01:50:43;;;;;;;0.47;0.47;;;;;;;13.86;80.31;96662.84;29394;334;64009;-71
2021/08/02 01:51:54;;;;;;;0.50;0.50;;;;;;;13.87;80.57;96675.38;29395;199;63004;-73
2021/08/02 01:52:32;;;;;;;0.60;0.60;;;;;;;13.88;80.51;96668.00;29395;226;63009;-72
2021/08/02 01:53:27;;;;;;;0.50;0.50;;;;;;;13.88;80.56;96665.25;29395;243;63004;-71
2021/08/02 01:55:02;;;;;;;0.50;0.50;;;;;;;13.86;80.82;96668.31;29395;232;63009;-70
2021/08/02 01:55:37;;;;;;;0.50;0.50;;;;;;;13.86;81.18;96668.31;29394;224;64005;-71
2021/08/02 01:56:19;;;;;;;0.50;0.50;;;;;;;13.86;80.90;96679.22;29395;230;63026;-72
2021/08/02 01:57:29;;;;;;;0.50;0.50;;;;;;;13.86;81.06;96676.50;29395;221;63005;-71
2021/08/02 01:58:04;;;;;;;0.50;0.50;;;;;;;13.85;81.02;96671.38;29395;243;63009;-71
2021/08/02 01:58:54;;;;;;;0.50;0.50;;;;;;;13.87;80.92;96680.03;29395;212;63004;-71
2021/08/02 01:59:31;;;;;;;0.50;0.50;;;;;;;13.86;80.96;96668.31;29395;212;63009;-71
2021/08/02 02:00:11;;;;;;;0.50;0.50;;;;;;;13.87;81.15;96672.66;29394;227;64004;-72
2021/08/02 02:00:47;;;;;;;0.50;0.50;;;;;;;13.87;81.08;96675.38;29395;218;63008;-71
2021/08/02 02:01:22;;;;;;;0.50;0.50;;;;;;;13.87;81.05;96669.91;29395;206;63008;-72
2021/08/02 02:02:00;;;;;;;0.50;0.50;;;;;;;13.86;80.98;96668.31;29395;202;63009;-72
2021/08/02 02:02:34;;;;;;;0.50;0.50;;;;;;;13.86;81.03;96665.59;29395;202;63005;-71
2021/08/02 02:03:12;;;;;;;0.50;0.50;;;;;;;13.87;81.23;96669.91;29395;301;63009;-72
2021/08/02 02:03:44;;;;;;;0.50;0.50;;;;;;;13.87;81.11;96669.13;29395;199;63005;-72
2021/08/02 02:04:17;;;;;;;0.50;0.50;;;;;;;13.86;81.49;96668.31;29395;232;63009;-72
2021/08/02 02:05:00;;;;;;;0.50;0.50;;;;;;;13.85;81.21;96666.72;29395;227;63005;-72
2021/08/02 02:05:37;;;;;;;0.50;0.50;;;;;;;13.86;80.91;96671.03;29394;196;64009;-72
2021/08/02 02:06:14;;;;;;;0.50;0.50;;;;;;;13.87;80.74;96669.13;29395;272;63004;-72
2021/08/02 02:06:49;;;;;;;0.50;0.50;;;;;;;13.87;80.77;96669.91;29395;242;63009;-71
2021/08/02 02:07:22;;;;;;;0.50;0.50;;;;;;;13.88;80.67;96681.62;29395;221;63004;-71
2021/08/02 02:08:16;;;;;;;0.50;0.50;;;;;;;13.87;80.84;96672.66;29395;245;63009;-71
2021/08/02 02:08:56;;;;;;;0.50;0.50;;;;;;;13.87;80.96;96669.91;29395;214;63005;-72
2021/08/02 02:09:31;;;;;;;0.50;0.50;;;;;;;13.87;81.03;96675.38;29417;216;63009;-70
2021/08/02 02:10:05;;;;;;;0.50;0.50;;;;;;;13.87;80.86;96675.38;29395;242;63005;-71
2021/08/02 02:10:40;;;;;;;0.50;0.50;;;;;;;13.86;80.91;96684.66;29394;222;64009;-71
2021/08/02 02:11:13;;;;;;;0.50;0.50;;;;;;;13.87;80.83;96686.28;29395;216;63005;-73
2021/08/02 02:11:48;;;;;;;0.50;0.50;;;;;;;13.87;81.02;96682.75;29395;217;63009;-72
2021/08/02 02:12:20;;;;;;;0.50;0.50;;;;;;;13.86;81.19;96673.75;29395;215;63004;-71
2021/08/02 02:12:53;;;;;;;0.50;0.50;;;;;;;13.86;81.12;96684.66;29395;265;63009;-72
2021/08/02 02:13:40;;;;;;;0.40;0.40;;;;;;;13.86;80.95;96679.22;29395;223;63004;-71
2021/08/02 02:14:12;;;;;;;0.50;0.50;;;;;;;13.87;80.86;96680.03;29395;235;63009;-71
2021/08/02 02:14:44;;;;;;;0.50;0.50;;;;;;;13.87;80.89;96686.28;29395;258;63004;-71
2021/08/02 02:15:16;;;;;;;0.50;0.50;;;;;;;13.88;80.90;96676.19;29395;202;63008;-71
2021/08/02 02:15:53;;;;;;;0.50;0.50;;;;;;;13.85;81.00;96669.47;29394;221;64004;-71
2021/08/02 02:16:27;;;;;;;0.50;0.50;;;;;;;13.89;80.88;96673.13;29394;218;64009;-71
2021/08/02 02:17:02;;;;;;;0.50;0.50;;;;;;;13.90;80.79;96674.72;29395;223;63005;-71
2021/08/02 02:17:37;;;;;;;0.50;0.50;;;;;;;13.90;80.79;96687.56;29395;225;63009;-73
2021/08/02 02:18:10;;;;;;;0.50;0.50;;;;;;;13.90;80.83;96680.19;29395;211;63005;-71
2021/08/02 02:18:49;;;;;;;0.40;0.40;;;;;;;13.90;81.06;96685.66;29395;211;63009;-71
2021/08/02 02:19:24;;;;;;;0.50;0.50;;;;;;;13.89;81.03;96684.03;29395;217;63009;-73
2021/08/02 02:19:57;;;;;;;0.50;0.50;;;;;;;13.89;81.14;96675.06;29395;225;63009;-73
2021/08/02 02:20:32;;;;;;;0.47;0.47;;;;;;;13.88;81.15;96682.44;29395;237;63004;-72
2021/08/02 02:21:05;;;;;;;0.50;0.50;;;;;;;13.88;81.31;96681.62;29394;204;64009;-71
2021/08/02 02:21:40;;;;;;;0.50;0.50;;;;;;;13.87;81.75;96680.81;29395;196;63007;-72
2021/08/02 02:22:11;;;;;;;0.50;0.50;;;;;;;13.87;81.81;96680.81;29395;222;63008;-72
2021/08/02 02:22:43;;;;;;;0.50;0.50;;;;;;;13.87;81.41;96680.81;29395;202;63004;-71
2021/08/02 02:23:15;;;;;;;0.45;0.45;;;;;;;13.85;81.37;96688.56;29395;203;63009;-72
2021/08/02 02:23:47;;;;;;;0.65;0.65;;;;;;;13.86;81.19;96684.66;29394;238;64005;-71
2021/08/02 02:24:19;;;;;;;0.50;0.50;;;;;;;13.87;81.01;96690.94;29395;225;63009;-74
2021/08/02 02:24:53;;;;;;;0.50;0.50;;;;;;;13.87;80.79;96686.28;29395;233;63010;-73
2021/08/02 02:25:25;;;;;;;0.50;0.50;;;;;;;13.88;80.99;96693.34;29394;227;64009;-72
2021/08/02 02:25:57;;;;;;;0.50;0.50;;;;;;;13.86;81.10;96690.12;29395;203;63005;-71
2021/08/02 02:26:32;;;;;;;0.50;0.50;;;;;;;13.82;81.23;96686.47;29395;199;63009;-73
2021/08/02 02:27:06;;;;;;;0.50;0.50;;;;;;;13.82;81.55;96688.38;29395;202;63005;-73
2021/08/02 02:27:38;;;;;;;0.50;0.50;;;;;;;13.78;81.93;96696.41;29395;222;63009;-73
2021/08/02 02:28:12;;;;;;;0.40;0.40;;;;;;;13.77;81.85;96685.81;29395;207;63004;-72
2021/08/02 02:28:43;;;;;;;0.50;0.50;;;;;;;13.77;81.33;96691.25;29395;218;63009;-72
2021/08/02 02:29:17;;;;;;;0.50;0.50;;;;;;;13.75;81.39;96689.66;29395;231;63004;-71
2021/08/02 02:29:50;;;;;;;0.50;0.50;;;;;;;13.77;81.41;96691.25;29395;196;63008;-72
2021/08/02 02:30:22;;;;;;;0.50;0.50;;;;;;;13.74;81.63;96687.25;29394;232;64004;-72
2021/08/02 02:30:56;;;;;;;0.50;0.50;;;;;;;13.74;81.45;96684.50;29395;239;63009;-74
2021/08/02 02:31:29;;;;;;;0.50;0.50;;;;;;;13.75;81.18;96692.37;29395;240;63005;-73
2021/08/02 02:32:03;;;;;;;0.50;0.50;;;;;;;13.78;81.09;96681.97;29395;202;63009;-72
2021/08/02 02:32:40;;;;;;;0.50;0.50;;;;;;;13.78;80.97;96682.75;29395;243;63005;-71
2021/08/02 02:33:14;;;;;;;0.50;0.50;;;;;;;13.79;80.76;96684.38;29395;245;63009;-72
2021/08/02 02:33:47;;;;;;;0.50;0.50;;;;;;;13.81;80.73;96687.56;29395;196;63005;-61
2021/08/02 02:34:21;;;;;;;0.50;0.50;;;;;;;13.80;80.65;96685.97;29395;206;63009;-74
2021/08/02 02:34:54;;;;;;;0.50;0.50;;;;;;;13.79;80.54;96678.91;29395;198;63004;-73
2021/08/02 02:35:26;;;;;;;0.50;0.50;;;;;;;13.78;80.54;96692.87;29394;219;64009;-74
2021/08/02 02:35:57;;;;;;;0.50;0.50;;;;;;;13.79;80.88;96686.28;29394;202;64004;-71
2021/08/02 02:36:29;;;;;;;0.50;0.50;;;;;;;13.79;80.61;96694.47;29395;242;63009;-73
2021/08/02 02:37:02;;;;;;;0.50;0.50;;;;;;;13.78;80.73;96688.22;29395;205;63004;-61
2021/08/02 02:37:38;;;;;;;0.50;0.50;;;;;;;13.75;80.75;96688.84;29395;231;63008;-74
2021/08/02 02:38:15;;;;;;;0.50;0.50;;;;;;;13.72;80.71;96689.47;29395;206;63005;-70
2021/08/02 02:38:49;;;;;;;0.50;0.50;;;;;;;13.68;80.97;96683.84;29395;307;63009;-73
2021/08/02 02:39:21;;;;;;;0.50;0.50;;;;;;;13.68;81.03;96688.50;29395;243;63005;-73
2021/08/02 02:39:53;;;;;;;0.50;0.50;;;;;;;13.69;81.08;96695.56;29395;265;63009;-73
2021/08/02 02:40:26;;;;;;;0.50;0.50;;;;;;;13.68;80.89;96693.97;29395;202;63005;-72
2021/08/02 02:40:58;;;;;;;0.50;0.50;;;;;;;13.66;81.10;96686.09;29394;205;64009;-74
2021/08/02 02:41:31;;;;;;;0.50;0.50;;;;;;;13.64;81.18;96692.97;29395;241;63005;-59
2021/08/02 02:42:03;;;;;;;0.50;0.50;;;;;;;13.63;81.48;96694.09;29395;222;63012;-73
2021/08/02 02:42:35;;;;;;;0.50;0.50;;;;;;;13.60;81.25;96694.72;29395;215;63004;-72
2021/08/02 02:43:07;;;;;;;0.50;0.50;;;;;;;13.61;81.35;96699.06;29395;204;63009;-72
2021/08/02 02:43:40;;;;;;;0.50;0.50;;;;;;;13.60;81.43;96695.53;29395;240;63004;-72
2021/08/02 02:44:15;;;;;;;0.50;0.50;;;;;;;13.60;81.55;96697.47;29395;224;63009;-73
2021/08/02 02:44:48;;;;;;;0.50;0.50;;;;;;;13.59;81.37;96696.66;29395;207;63004;-70
2021/08/02 02:45:20;;;;;;;0.50;0.50;;;;;;;13.58;81.85;96694.25;29395;218;63008;-73
2021/08/02 02:45:52;;;;;;;0.50;0.50;;;;;;;13.59;81.61;96693.13;29395;197;63005;-74
2021/08/02 02:46:25;;;;;;;0.50;0.50;;;;;;;13.57;81.45;96689.91;29394;274;64009;-58
2021/08/02 02:46:57;;;;;;;0.50;0.50;;;;;;;13.56;81.21;96694.56;29395;219;63005;-71
2021/08/02 02:47:31;;;;;;;0.45;0.45;;;;;;;13.55;81.61;96692.94;29395;198;63009;-71
2021/08/02 02:48:04;;;;;;;0.50;0.50;;;;;;;13.54;81.92;96698.72;29395;227;63005;-71
2021/08/02 02:48:36;;;;;;;0.50;0.50;;;;;;;13.53;82.28;96697.09;29395;236;63009;-70
2021/08/02 02:49:09;;;;;;;0.50;0.50;;;;;;;13.52;82.10;96700.97;29395;223;63005;-73
2021/08/02 02:49:41;;;;;;;0.50;0.50;;;;;;;13.51;82.01;96704.84;29394;202;64009;-60
2021/08/02 02:50:13;;;;;;;0.50;0.50;;;;;;;13.51;81.94;96704.84;29395;223;63004;-74
2021/08/02 02:50:48;;;;;;;0.50;0.50;;;;;;;13.51;82.14;96699.38;29395;198;63009;-73
2021/08/02 02:51:20;;;;;;;0.50;0.50;;;;;;;13.50;82.09;96704.03;29395;245;63004;-72
2021/08/02 02:51:53;;;;;;;0.50;0.50;;;;;;;13.50;82.08;96700.50;29395;246;63009;-73
2021/08/02 02:52:26;;;;;;;0.50;0.50;;;;;;;13.49;82.51;96701.63;29395;204;63008;-73
2021/08/02 02:52:59;;;;;;;0.50;0.50;;;;;;;13.47;82.65;96703.84;29395;235;63008;-72
2021/08/02 02:53:31;;;;;;;0.50;0.50;;;;;;;13.47;82.64;96703.84;29395;209;63005;-73
2021/08/02 02:54:05;;;;;;;0.50;0.50;;;;;;;13.46;82.54;96707.69;29394;227;64009;-71
2021/08/02 02:54:39;;;;;;;0.50;0.50;;;;;;;13.47;82.51;96712.84;29395;198;63010;-72
2021/08/02 02:55:12;;;;;;;0.50;0.50;;;;;;;13.47;82.63;96709.31;29395;197;63009;-72
2021/08/02 02:55:46;;;;;;;0.50;0.50;;;;;;;13.46;82.66;96704.97;29395;209;63005;-71
2021/08/02 02:56:18;;;;;;;0.45;0.45;;;;;;;13.46;82.92;96703.06;29395;199;63009;-71
2021/08/02 02:56:53;;;;;;;0.50;0.50;;;;;;;13.46;82.81;96702.25;29394;236;64005;-71